Skip Navigation Links Skip Navigation Links

Current Weather

Central Park, New York

For information only: do not use for flight planning or navigation.
Latest weather
Observation time Saturday, December 5, 2020 3:16 AM EST
Local time Saturday, December 5, 2020 3:24 AM EST
Flight conditions Instrument Meteorological Conditions
Winds
Wind direction Northeast (50°)
Wind speed 3 mph
Visibility 2.5 mi.
Present weather light rain, mist
Sky condition
Ceiling 900 ft. broken clouds
Cloud layer broken clouds 900 ft.
Cloud layer overcast 6,500 ft.
Temperature 45°F
Dewpoint 43°F
Altimeter 29.80 in.Hg
Precipitation
Precipitation last hour 0.02 in.
Derived measurements
Relative humidity 93%
Wind chill 44°F
Density altitude -505 ft.
Remarks
Special weather observation.
System requires maintenance.
Automated weather observing station with precipitation discriminator.
Visibility.
METAR SPUS80 KWBC 050820 SPECI KNYC 050816Z 05003KT 2 1/2SM -RA BR BKN009 OVC065 07/06 A2980 RMK AO2 VIS 1 3/4V4 P0002 T00720061 $

Settings

Location code

InnerDrive.Weather 4.0.6770.0 Release CLR 4.0.30319.42000
Copyright ©2018 Inner Drive Technology. All rights reserved. Portions Copyright ©1986-2018 David Braverman.

Find weather

Site navigation


Skip Navigation Links

Place info

Page info

PayPal - The safer, easier way to pay online!

Return home.

Copyright ©2020 Inner Drive Technology. Purveyors of fine, hand-crafted computer software. Page printed 2020-12-05T08:24:56 UTC.